Bookmark and Share
Track history (hours):
 

Grete Maersk

Last reported at 2014-Apr-11 19:08 UTC. Time now 2014-Apr-19 06:57 UTC.
Position N 31°27' E 032°18'.

MMSI: 218824136.

NotesDate/timePositionNaut miles runAvg speedWind from/ knotsBaromVisibWave heightAir tempDewpointWater temp
2014-Apr-11 19:08N 31°27' E 032°18'  
2014-Apr-09 01:31N 36°01' E 015°52'4814.1
2014-Apr-08 22:06N 36°15' E 014°55'814.6
2014-Apr-08 21:33N 36°18' E 014°46'1414.2
2014-Apr-08 20:32N 36°22' E 014°29'1413.9
2014-Apr-08 19:33N 36°26' E 014°13'1413.8
2014-Apr-08 18:33N 36°30' E 013°56'1414.3
2014-Apr-08 17:33N 36°35' E 013°39'1414.3
2014-Apr-08 16:33N 36°39' E 013°22'1514.6
2014-Apr-08 15:33N 36°44' E 013°05'1414.1
2014-Apr-08 14:33N 36°47' E 012°48'1413.9
2014-Apr-08 13:34N 36°52' E 012°32'1414.0
2014-Apr-08 12:34N 36°56' E 012°15'1514.1
2014-Apr-08 11:31N 37°01' E 011°58'1414.2
2014-Apr-08 10:33N 37°08' E 011°43'1514.2
2014-Apr-08 09:32N 37°15' E 011°27'1414.3
2014-Apr-08 08:33N 37°21' E 011°11'1414.0
2014-Apr-08 07:33N 37°26' E 010°55'1514.7
2014-Apr-08 06:33N 37°29' E 010°36'1515.3
2014-Apr-08 05:33N 37°34' E 010°18'1515.0
2014-Apr-08 04:33N 37°34' E 009°59'1515.1
2014-Apr-08 03:33N 37°30' E 009°41'1515.1
2014-Apr-08 02:33N 37°26' E 009°23'1514.9
2014-Apr-08 01:33N 37°22' E 009°05'1514.7
2014-Apr-08 00:33N 37°19' E 008°47'1514.5
2014-Apr-07 23:32N 37°16' E 008°28'1714.8
2014-Apr-07 22:25N 37°16' E 008°07'26514.7
2014-Apr-07 04:24N 36°56' E 002°36'38214.2
2014-Apr-06 01:33N 35°59' W 005°14'1816.5
2014-Apr-06 00:27N 35°55' W 005°36'1614.6
2014-Apr-05 23:21N 35°54' W 005°56'14913.8
2014-Apr-05 12:32N 36°30' W 008°55'7412.3
2014-Apr-05 06:32N 37°31' W 009°46'1313.4
2014-Apr-05 05:33N 37°44' W 009°50'1313.4
2014-Apr-05 04:33N 37°57' W 009°54'1413.9
2014-Apr-05 03:32N 38°11' W 009°58'  
2014-Apr-02 08:30N 50°13' W 001°31'1011.1
2014-Apr-02 07:34N 50°16' W 001°15'1413.6
2014-Apr-02 06:33N 50°19' W 000°54'1515.4
2014-Apr-02 05:33N 50°24' W 000°31'1615.8
2014-Apr-02 04:33N 50°28' W 000°08'1615.7
2014-Apr-02 03:33N 50°33' E 000°16'1514.7
2014-Apr-02 02:33N 50°37' E 000°38'1413.6
2014-Apr-02 01:33N 50°45' E 000°56'1212.2
2014-Apr-02 00:33N 50°51' E 001°12'1212.0
2014-Apr-01 23:33N 51°00' E 001°25'1414.2
2014-Apr-01 22:33N 51°10' E 001°41'1616.2
2014-Apr-01 21:33N 51°23' E 001°56'1616.0
2014-Apr-01 20:33N 51°36' E 002°13'1515.3
2014-Apr-01 19:33N 51°47' E 002°29'  

Dump ship's entire track history

sailing weather and tide predictions

Grete Maersk — OYCY2 — position and weather